Friday, February 23, 2018, 2:46 PM EST
Back to Local

KBTV, Burlington International

Location: South Burlington, VT, United States Lat: 44.467
Local Time: 2:46 PM EST (19:46 GMT) Lon: -73.15
Time Zone: US/Eastern Elev: 334 ft

Show me the last for .
Show Decoded

2018-02-23 13:54 METAR KBTV 231854Z 18015G26KT 10SM OVC041 02/M07 A3028 RMK AO2 PK WND 18026/1851
                 PRESFR SLP260 T00221067 =
2018-02-23 12:54 METAR KBTV 231754Z 17014G18KT 10SM BKN080 OVC100 02/M07 A3036 RMK AO2 SLP285
                 T00171067 10017 21061 58061 =
2018-02-23 11:54 METAR KBTV 231654Z 17010KT 10SM BKN090 OVC120 02/M07 A3044 RMK AO2 PRESFR SLP311
                 T00171067 =
2018-02-23 10:54 METAR KBTV 231554Z 18011KT 10SM FEW045 BKN100 OVC120 01/M08 A3049 RMK AO2 SLP331
                 T00061078 =
2018-02-23 09:54 METAR KBTV 231454Z 17010KT 10SM SCT110 BKN150 OVC200 M01/M08 A3054 RMK AO2
                 SLP347 T10061078 58024 =
2018-02-23 08:54 METAR KBTV 231354Z 17006KT 10SM SCT120 OVC150 M02/M07 A3057 RMK AO2 SLP357
                 T10221072 =
2018-02-23 07:54 METAR KBTV 231254Z 18005KT 10SM SCT100 BKN120 BKN200 M04/M08 A3060 RMK AO2
                 SLP370 T10441078 =
2018-02-23 06:54 METAR KBTV 231154Z 17004KT 10SM BKN100 BKN200 M06/M09 A3061 RMK AO2 SLP372
                 T10611094 11056 21078 56026 =
2018-02-23 05:54 METAR KBTV 231054Z 15005KT 10SM FEW200 M07/M09 A3063 RMK AO2 SLP379 T10721094 =
2018-02-23 04:54 METAR KBTV 230954Z 00000KT 10SM CLR M07/M09 A3066 RMK AO2 SLP389 T10721094 =
2018-02-23 03:54 METAR KBTV 230854Z 17003KT 10SM CLR M07/M09 A3069 RMK AO2 SLP399 T10721094 58010
                 =
2018-02-23 02:54 METAR KBTV 230754Z 32003KT 10SM CLR M06/M09 A3070 RMK AO2 SLP404 T10611089 =
2018-02-23 01:54 METAR KBTV 230654Z 24003KT 10SM CLR M07/M09 A3071 RMK AO2 SLP406 T10671094 =
2018-02-23 00:54 METAR KBTV 230554Z 00000KT 10SM CLR M06/M09 A3072 RMK AO2 SLP408 T10561094 11039
                 21056 50003 =
2018-02-22 23:54 METAR KBTV 230454Z 35003KT 10SM CLR M06/M10 A3074 RMK AO2 SLP417 LAST T10561100
                 400171056 =
2018-02-22 22:54 METAR KBTV 230354Z 33004KT 10SM CLR M06/M09 A3072 RMK AO2 SLP407 T10561094 =
2018-02-22 21:54 METAR KBTV 230254Z 34004KT 10SM CLR M05/M09 A3071 RMK AO2 SLP406 T10501094 58000
                 =
2018-02-22 20:54 METAR KBTV 230154Z 32004KT 10SM CLR M05/M09 A3072 RMK AO2 SLP408 T10501094 =
2018-02-22 19:54 METAR KBTV 230054Z 34005KT 10SM CLR M04/M09 A3072 RMK AO2 SLP407 T10441089 =
2018-02-22 18:54 METAR KBTV 222354Z 32008KT 10SM CLR M04/M09 A3071 RMK AO2 SLP406 T10391089 11017
                 21039 53008 =
2018-02-22 17:54 METAR KBTV 222254Z 31007KT 10SM SCT110 BKN200 M03/M09 A3071 RMK AO2 SLP403
                 T10331089 =
2018-02-22 16:54 METAR KBTV 222154Z 32003KT 10SM SCT120 BKN200 M02/M09 A3069 RMK AO2 SLP397
                 T10221094 =
2018-02-22 15:54 METAR KBTV 222054Z 33007KT 10SM OVC110 M02/M10 A3069 RMK AO2 SLP398 T10171100
                 56002 =
2018-02-22 14:54 METAR KBTV 221954Z 32007KT 10SM OVC100 M02/M10 A3069 RMK AO2 SLP399 T10221100 =

Support USWX by starting your Amazon purchase here.